< < Back
Terminal Aerodrome Forecast


Current Version              Previous Versions:   1  2  3  4  5  6  7  8  9  

Terminal Aerodrome Forecast

545
FTUS42 KGSP 012300
TAFCLT
TAF
KCLT 012328Z 0200/0224 17003KT P6SM SCT060
     FM020700 17002KT 6SM BR BKN060
     FM021400 19006KT P6SM SCT050=



Latest METAR

213
SAUS70 KWBC 020800 RRA
MTRCLT
METAR KCLT 020752Z 00000KT 9SM FEW090 18/16 A3005 RMK AO2 SLP168
T01830161 $


USA.gov is the U.S. government's official web portal to all federal, state and local government web resources and services.